sensor_id;sensor_type;location;lat;lon;timestamp;temperature;humidity
52941;DHT22;62001;53.366;6.636;2023-07-28T00:02:20;18.10;99.90
52941;DHT22;62001;53.366;6.636;2023-07-28T00:04:45;18.10;99.90
52941;DHT22;62001;53.366;6.636;2023-07-28T00:07:11;18.10;99.90
52941;DHT22;62001;53.366;6.636;2023-07-28T00:09:37;18.10;99.90
52941;DHT22;62001;53.366;6.636;2023-07-28T00:12:03;18.10;99.90
52941;DHT22;62001;53.366;6.636;2023-07-28T00:14:29;18.10;99.90
52941;DHT22;62001;53.366;6.636;2023-07-28T00:16:56;18.10;99.90
52941;DHT22;62001;53.366;6.636;2023-07-28T00:19:22;18.10;99.90
52941;DHT22;62001;53.366;6.636;2023-07-28T00:21:49;18.10;99.90
52941;DHT22;62001;53.366;6.636;2023-07-28T00:24:15;18.10;99.90
52941;DHT22;62001;53.366;6.636;2023-07-28T00:26:41;18.10;99.90
52941;DHT22;62001;53.366;6.636;2023-07-28T00:29:07;18.10;99.90
52941;DHT22;62001;53.366;6.636;2023-07-28T00:31:33;18.10;99.90
52941;DHT22;62001;53.366;6.636;2023-07-28T00:33:59;18.10;99.90
52941;DHT22;62001;53.366;6.636;2023-07-28T00:36:25;18.10;99.90
52941;DHT22;62001;53.366;6.636;2023-07-28T00:38:51;18.10;99.90
52941;DHT22;62001;53.366;6.636;2023-07-28T00:41:17;18.10;99.90
52941;DHT22;62001;53.366;6.636;2023-07-28T00:43:43;18.10;99.90
52941;DHT22;62001;53.366;6.636;2023-07-28T00:46:10;18.10;99.90
52941;DHT22;62001;53.366;6.636;2023-07-28T00:48:36;18.10;99.90
52941;DHT22;62001;53.366;6.636;2023-07-28T00:51:02;18.10;99.90
52941;DHT22;62001;53.366;6.636;2023-07-28T00:53:29;18.10;99.90
52941;DHT22;62001;53.366;6.636;2023-07-28T00:55:55;18.10;99.90
52941;DHT22;62001;53.366;6.636;2023-07-28T00:58:22;18.10;99.90
52941;DHT22;62001;53.366;6.636;2023-07-28T01:00:48;18.10;99.90
52941;DHT22;62001;53.366;6.636;2023-07-28T01:03:17;18.10;99.90
52941;DHT22;62001;53.366;6.636;2023-07-28T01:08:34;18.10;99.90
52941;DHT22;62001;53.366;6.636;2023-07-28T01:11:04;18.10;99.90
52941;DHT22;62001;53.366;6.636;2023-07-28T01:13:30;18.10;99.90
52941;DHT22;62001;53.366;6.636;2023-07-28T01:15:56;18.10;99.90
52941;DHT22;62001;53.366;6.636;2023-07-28T01:18:23;18.10;99.90
52941;DHT22;62001;53.366;6.636;2023-07-28T01:20:51;18.10;99.90
52941;DHT22;62001;53.366;6.636;2023-07-28T01:26:12;18.10;99.90
52941;DHT22;62001;53.366;6.636;2023-07-28T01:28:41;18.10;99.90
52941;DHT22;62001;53.366;6.636;2023-07-28T01:31:08;18.10;99.90
52941;DHT22;62001;53.366;6.636;2023-07-28T01:33:34;18.10;99.90
52941;DHT22;62001;53.366;6.636;2023-07-28T01:36:00;18.10;99.90
52941;DHT22;62001;53.366;6.636;2023-07-28T01:38:27;18.10;99.90
52941;DHT22;62001;53.366;6.636;2023-07-28T01:40:53;18.10;99.90
52941;DHT22;62001;53.366;6.636;2023-07-28T01:43:19;18.10;99.90
52941;DHT22;62001;53.366;6.636;2023-07-28T01:45:45;18.10;99.90
52941;DHT22;62001;53.366;6.636;2023-07-28T01:48:11;18.10;99.90
52941;DHT22;62001;53.366;6.636;2023-07-28T01:50:38;18.10;99.90
52941;DHT22;62001;53.366;6.636;2023-07-28T01:53:05;18.10;99.90
52941;DHT22;62001;53.366;6.636;2023-07-28T01:55:31;18.10;99.90
52941;DHT22;62001;53.366;6.636;2023-07-28T01:57:59;18.10;99.90
52941;DHT22;62001;53.366;6.636;2023-07-28T02:00:26;18.10;99.90
52941;DHT22;62001;53.366;6.636;2023-07-28T02:02:52;18.10;99.90
52941;DHT22;62001;53.366;6.636;2023-07-28T02:05:19;18.10;99.90
52941;DHT22;62001;53.366;6.636;2023-07-28T02:07:45;18.10;99.90
52941;DHT22;62001;53.366;6.636;2023-07-28T02:10:11;18.10;99.90
52941;DHT22;62001;53.366;6.636;2023-07-28T02:12:38;18.20;99.90
52941;DHT22;62001;53.366;6.636;2023-07-28T02:15:06;18.10;99.90
52941;DHT22;62001;53.366;6.636;2023-07-28T02:17:33;18.10;99.90
52941;DHT22;62001;53.366;6.636;2023-07-28T02:19:59;18.10;99.90
52941;DHT22;62001;53.366;6.636;2023-07-28T02:22:25;18.10;99.90
52941;DHT22;62001;53.366;6.636;2023-07-28T02:24:50;18.10;99.90
52941;DHT22;62001;53.366;6.636;2023-07-28T02:27:16;18.10;99.90
52941;DHT22;62001;53.366;6.636;2023-07-28T02:29:42;18.10;99.90
52941;DHT22;62001;53.366;6.636;2023-07-28T02:32:08;18.10;99.90
52941;DHT22;62001;53.366;6.636;2023-07-28T02:34:34;18.10;99.90
52941;DHT22;62001;53.366;6.636;2023-07-28T02:37:00;18.10;99.90
52941;DHT22;62001;53.366;6.636;2023-07-28T02:39:26;18.10;99.90
52941;DHT22;62001;53.366;6.636;2023-07-28T02:41:52;18.20;99.90
52941;DHT22;62001;53.366;6.636;2023-07-28T02:44:18;18.10;99.90
52941;DHT22;62001;53.366;6.636;2023-07-28T02:46:44;18.10;99.90
52941;DHT22;62001;53.366;6.636;2023-07-28T02:49:09;18.10;99.90
52941;DHT22;62001;53.366;6.636;2023-07-28T02:51:35;18.10;99.90
52941;DHT22;62001;53.366;6.636;2023-07-28T02:54:01;18.20;99.90
52941;DHT22;62001;53.366;6.636;2023-07-28T02:56:27;18.20;99.90
52941;DHT22;62001;53.366;6.636;2023-07-28T02:58:53;18.10;99.90
52941;DHT22;62001;53.366;6.636;2023-07-28T03:01:19;18.20;99.90
52941;DHT22;62001;53.366;6.636;2023-07-28T03:03:45;18.10;99.90
52941;DHT22;62001;53.366;6.636;2023-07-28T03:06:13;18.20;99.90
52941;DHT22;62001;53.366;6.636;2023-07-28T03:08:38;18.20;99.90
52941;DHT22;62001;53.366;6.636;2023-07-28T03:11:04;18.20;99.90
52941;DHT22;62001;53.366;6.636;2023-07-28T03:13:30;18.20;99.90
52941;DHT22;62001;53.366;6.636;2023-07-28T03:15:56;18.20;99.90
52941;DHT22;62001;53.366;6.636;2023-07-28T03:18:22;18.20;99.90
52941;DHT22;62001;53.366;6.636;2023-07-28T03:20:49;18.20;99.90
52941;DHT22;62001;53.366;6.636;2023-07-28T03:23:15;18.20;99.90
52941;DHT22;62001;53.366;6.636;2023-07-28T03:25:41;18.20;99.90
52941;DHT22;62001;53.366;6.636;2023-07-28T03:28:07;18.20;99.90
52941;DHT22;62001;53.366;6.636;2023-07-28T03:30:33;18.20;99.90
52941;DHT22;62001;53.366;6.636;2023-07-28T03:32:59;18.20;99.90
52941;DHT22;62001;53.366;6.636;2023-07-28T03:35:25;18.20;99.90
52941;DHT22;62001;53.366;6.636;2023-07-28T03:37:50;18.20;99.90
52941;DHT22;62001;53.366;6.636;2023-07-28T03:40:16;18.20;99.90
52941;DHT22;62001;53.366;6.636;2023-07-28T03:42:42;18.20;99.90
52941;DHT22;62001;53.366;6.636;2023-07-28T03:45:08;18.20;99.90
52941;DHT22;62001;53.366;6.636;2023-07-28T03:47:35;18.20;99.90
52941;DHT22;62001;53.366;6.636;2023-07-28T03:50:01;18.20;99.90
52941;DHT22;62001;53.366;6.636;2023-07-28T03:52:27;18.20;99.90
52941;DHT22;62001;53.366;6.636;2023-07-28T03:54:52;18.20;99.90
52941;DHT22;62001;53.366;6.636;2023-07-28T03:57:18;18.20;99.90
52941;DHT22;62001;53.366;6.636;2023-07-28T03:59:44;18.20;99.90
52941;DHT22;62001;53.366;6.636;2023-07-28T04:02:10;18.20;99.90
52941;DHT22;62001;53.366;6.636;2023-07-28T04:04:37;18.20;99.90
52941;DHT22;62001;53.366;6.636;2023-07-28T04:07:03;18.20;99.90
52941;DHT22;62001;53.366;6.636;2023-07-28T04:09:29;18.20;99.90
52941;DHT22;62001;53.366;6.636;2023-07-28T04:11:54;18.20;99.90
52941;DHT22;62001;53.366;6.636;2023-07-28T04:14:20;18.20;99.90
52941;DHT22;62001;53.366;6.636;2023-07-28T04:16:46;18.20;99.90
52941;DHT22;62001;53.366;6.636;2023-07-28T04:19:12;18.20;99.90
52941;DHT22;62001;53.366;6.636;2023-07-28T04:21:38;18.20;99.90
52941;DHT22;62001;53.366;6.636;2023-07-28T04:24:08;18.20;99.90
52941;DHT22;62001;53.366;6.636;2023-07-28T04:26:34;18.20;99.90
52941;DHT22;62001;53.366;6.636;2023-07-28T04:28:59;18.20;99.90
52941;DHT22;62001;53.366;6.636;2023-07-28T04:31:26;18.20;99.90
52941;DHT22;62001;53.366;6.636;2023-07-28T04:33:52;18.20;99.90
52941;DHT22;62001;53.366;6.636;2023-07-28T04:36:17;18.20;99.90
52941;DHT22;62001;53.366;6.636;2023-07-28T04:38:43;18.20;99.90
52941;DHT22;62001;53.366;6.636;2023-07-28T04:41:09;18.20;99.90
52941;DHT22;62001;53.366;6.636;2023-07-28T04:43:35;18.20;99.90
52941;DHT22;62001;53.366;6.636;2023-07-28T04:46:01;18.20;99.90
52941;DHT22;62001;53.366;6.636;2023-07-28T04:48:27;18.20;99.90
52941;DHT22;62001;53.366;6.636;2023-07-28T04:50:53;18.20;99.90
52941;DHT22;62001;53.366;6.636;2023-07-28T04:53:19;18.20;99.90
52941;DHT22;62001;53.366;6.636;2023-07-28T04:55:45;18.30;99.90
52941;DHT22;62001;53.366;6.636;2023-07-28T04:58:11;18.30;99.90
52941;DHT22;62001;53.366;6.636;2023-07-28T05:00:37;18.30;99.90
52941;DHT22;62001;53.366;6.636;2023-07-28T05:03:03;18.30;99.90
52941;DHT22;62001;53.366;6.636;2023-07-28T05:05:29;18.30;99.90
52941;DHT22;62001;53.366;6.636;2023-07-28T05:07:55;18.30;99.90
52941;DHT22;62001;53.366;6.636;2023-07-28T05:10:21;18.30;99.90
52941;DHT22;62001;53.366;6.636;2023-07-28T05:12:47;18.30;99.90
52941;DHT22;62001;53.366;6.636;2023-07-28T05:15:15;18.30;99.90
52941;DHT22;62001;53.366;6.636;2023-07-28T05:17:41;18.30;99.90
52941;DHT22;62001;53.366;6.636;2023-07-28T05:20:07;18.30;99.90
52941;DHT22;62001;53.366;6.636;2023-07-28T05:22:33;18.30;99.90
52941;DHT22;62001;53.366;6.636;2023-07-28T05:24:59;18.30;99.90
52941;DHT22;62001;53.366;6.636;2023-07-28T05:27:25;18.30;99.90
52941;DHT22;62001;53.366;6.636;2023-07-28T05:29:51;18.30;99.90
52941;DHT22;62001;53.366;6.636;2023-07-28T05:32:16;18.30;99.90
52941;DHT22;62001;53.366;6.636;2023-07-28T05:34:43;18.30;99.90
52941;DHT22;62001;53.366;6.636;2023-07-28T05:37:10;18.30;99.90
52941;DHT22;62001;53.366;6.636;2023-07-28T05:39:36;18.30;99.90
52941;DHT22;62001;53.366;6.636;2023-07-28T05:42:02;18.30;99.90
52941;DHT22;62001;53.366;6.636;2023-07-28T05:44:28;18.40;99.90
52941;DHT22;62001;53.366;6.636;2023-07-28T05:46:54;18.40;99.90
52941;DHT22;62001;53.366;6.636;2023-07-28T05:49:20;18.40;99.90
52941;DHT22;62001;53.366;6.636;2023-07-28T05:51:46;18.40;99.90
52941;DHT22;62001;53.366;6.636;2023-07-28T05:54:12;18.40;99.90
52941;DHT22;62001;53.366;6.636;2023-07-28T05:56:41;18.40;99.90
52941;DHT22;62001;53.366;6.636;2023-07-28T05:59:07;18.40;99.90
52941;DHT22;62001;53.366;6.636;2023-07-28T06:01:33;18.50;99.90
52941;DHT22;62001;53.366;6.636;2023-07-28T06:03:59;18.50;99.90
52941;DHT22;62001;53.366;6.636;2023-07-28T06:06:25;18.50;99.90
52941;DHT22;62001;53.366;6.636;2023-07-28T06:08:53;18.60;99.90
52941;DHT22;62001;53.366;6.636;2023-07-28T06:11:20;18.50;99.90
52941;DHT22;62001;53.366;6.636;2023-07-28T06:13:46;18.60;99.90
52941;DHT22;62001;53.366;6.636;2023-07-28T06:16:13;18.50;99.90
52941;DHT22;62001;53.366;6.636;2023-07-28T06:18:39;18.60;99.90
52941;DHT22;62001;53.366;6.636;2023-07-28T06:21:05;18.60;99.90
52941;DHT22;62001;53.366;6.636;2023-07-28T06:23:31;18.60;99.90
52941;DHT22;62001;53.366;6.636;2023-07-28T06:25:57;18.60;99.90
52941;DHT22;62001;53.366;6.636;2023-07-28T06:28:23;18.60;99.90
52941;DHT22;62001;53.366;6.636;2023-07-28T06:30:55;18.60;99.90
52941;DHT22;62001;53.366;6.636;2023-07-28T06:33:21;18.70;99.90
52941;DHT22;62001;53.366;6.636;2023-07-28T06:35:47;18.70;99.90
52941;DHT22;62001;53.366;6.636;2023-07-28T06:38:13;18.80;99.90
52941;DHT22;62001;53.366;6.636;2023-07-28T06:40:39;18.80;99.90
52941;DHT22;62001;53.366;6.636;2023-07-28T06:43:05;18.90;99.90
52941;DHT22;62001;53.366;6.636;2023-07-28T06:45:33;18.90;99.90
52941;DHT22;62001;53.366;6.636;2023-07-28T06:47:59;19.00;99.90
52941;DHT22;62001;53.366;6.636;2023-07-28T06:50:25;19.10;99.90
52941;DHT22;62001;53.366;6.636;2023-07-28T06:52:50;19.10;99.90
52941;DHT22;62001;53.366;6.636;2023-07-28T06:55:17;19.10;99.90
52941;DHT22;62001;53.366;6.636;2023-07-28T06:57:44;19.10;99.90
52941;DHT22;62001;53.366;6.636;2023-07-28T07:00:10;19.20;99.90
52941;DHT22;62001;53.366;6.636;2023-07-28T07:02:36;19.20;99.90
52941;DHT22;62001;53.366;6.636;2023-07-28T07:05:03;19.30;99.90
52941;DHT22;62001;53.366;6.636;2023-07-28T07:07:29;19.30;99.90
52941;DHT22;62001;53.366;6.636;2023-07-28T07:09:55;19.40;99.90
52941;DHT22;62001;53.366;6.636;2023-07-28T07:12:21;19.40;99.90
52941;DHT22;62001;53.366;6.636;2023-07-28T07:14:47;19.50;99.90
52941;DHT22;62001;53.366;6.636;2023-07-28T07:17:13;19.60;99.90
52941;DHT22;62001;53.366;6.636;2023-07-28T07:19:39;19.60;99.90
52941;DHT22;62001;53.366;6.636;2023-07-28T07:22:05;19.60;99.90
52941;DHT22;62001;53.366;6.636;2023-07-28T07:24:32;19.60;99.90
52941;DHT22;62001;53.366;6.636;2023-07-28T07:26:58;19.70;99.90
52941;DHT22;62001;53.366;6.636;2023-07-28T07:29:24;19.80;99.90
52941;DHT22;62001;53.366;6.636;2023-07-28T07:31:50;20.00;99.90
52941;DHT22;62001;53.366;6.636;2023-07-28T07:34:21;20.10;99.90
52941;DHT22;62001;53.366;6.636;2023-07-28T07:36:47;20.20;99.90
52941;DHT22;62001;53.366;6.636;2023-07-28T07:39:13;20.20;99.90
52941;DHT22;62001;53.366;6.636;2023-07-28T07:41:39;20.10;99.90
52941;DHT22;62001;53.366;6.636;2023-07-28T07:44:05;20.10;99.90
52941;DHT22;62001;53.366;6.636;2023-07-28T07:46:31;20.10;99.90
52941;DHT22;62001;53.366;6.636;2023-07-28T07:48:57;20.10;99.90
52941;DHT22;62001;53.366;6.636;2023-07-28T07:51:23;20.10;99.90
52941;DHT22;62001;53.366;6.636;2023-07-28T07:53:49;20.20;99.90
52941;DHT22;62001;53.366;6.636;2023-07-28T07:56:15;20.30;99.90
52941;DHT22;62001;53.366;6.636;2023-07-28T07:58:41;20.60;99.90
52941;DHT22;62001;53.366;6.636;2023-07-28T08:01:07;20.80;99.90
52941;DHT22;62001;53.366;6.636;2023-07-28T08:03:33;21.10;99.90
52941;DHT22;62001;53.366;6.636;2023-07-28T08:06:01;21.20;99.90
52941;DHT22;62001;53.366;6.636;2023-07-28T08:08:27;21.30;99.90
52941;DHT22;62001;53.366;6.636;2023-07-28T08:10:54;21.40;99.90
52941;DHT22;62001;53.366;6.636;2023-07-28T08:13:20;21.40;99.90
52941;DHT22;62001;53.366;6.636;2023-07-28T08:15:46;21.50;99.90
52941;DHT22;62001;53.366;6.636;2023-07-28T08:18:13;21.40;99.90
52941;DHT22;62001;53.366;6.636;2023-07-28T08:20:39;21.30;99.90
52941;DHT22;62001;53.366;6.636;2023-07-28T08:23:05;21.30;99.90
52941;DHT22;62001;53.366;6.636;2023-07-28T08:25:31;21.30;99.90
52941;DHT22;62001;53.366;6.636;2023-07-28T08:27:57;21.40;99.90
52941;DHT22;62001;53.366;6.636;2023-07-28T08:30:23;21.40;99.90
52941;DHT22;62001;53.366;6.636;2023-07-28T08:32:49;21.50;99.90
52941;DHT22;62001;53.366;6.636;2023-07-28T08:35:15;21.70;99.90
52941;DHT22;62001;53.366;6.636;2023-07-28T08:37:40;21.90;99.90
52941;DHT22;62001;53.366;6.636;2023-07-28T08:40:07;21.90;99.90
52941;DHT22;62001;53.366;6.636;2023-07-28T08:42:38;22.00;99.90
52941;DHT22;62001;53.366;6.636;2023-07-28T08:45:04;22.00;99.90
52941;DHT22;62001;53.366;6.636;2023-07-28T08:47:31;22.00;99.90
52941;DHT22;62001;53.366;6.636;2023-07-28T08:49:57;21.90;99.90
52941;DHT22;62001;53.366;6.636;2023-07-28T08:52:23;21.80;99.90
52941;DHT22;62001;53.366;6.636;2023-07-28T08:54:52;21.80;99.90
52941;DHT22;62001;53.366;6.636;2023-07-28T08:57:18;21.70;99.90
52941;DHT22;62001;53.366;6.636;2023-07-28T08:59:45;21.70;99.90
52941;DHT22;62001;53.366;6.636;2023-07-28T09:02:18;21.60;99.90
52941;DHT22;62001;53.366;6.636;2023-07-28T09:04:45;21.60;99.90
52941;DHT22;62001;53.366;6.636;2023-07-28T09:07:11;21.60;99.90
52941;DHT22;62001;53.366;6.636;2023-07-28T09:09:38;21.60;99.90
52941;DHT22;62001;53.366;6.636;2023-07-28T09:12:04;21.60;99.90
52941;DHT22;62001;53.366;6.636;2023-07-28T09:14:30;21.60;99.90
52941;DHT22;62001;53.366;6.636;2023-07-28T09:17:14;21.60;99.90
52941;DHT22;62001;53.366;6.636;2023-07-28T09:19:56;21.60;99.90
52941;DHT22;62001;53.366;6.636;2023-07-28T09:22:23;21.50;99.90
52941;DHT22;62001;53.366;6.636;2023-07-28T09:24:50;21.50;99.90
52941;DHT22;62001;53.366;6.636;2023-07-28T09:27:23;21.60;99.90
52941;DHT22;62001;53.366;6.636;2023-07-28T09:29:51;21.60;99.90
52941;DHT22;62001;53.366;6.636;2023-07-28T09:32:30;21.70;99.90
52941;DHT22;62001;53.366;6.636;2023-07-28T09:35:12;21.80;99.90
52941;DHT22;62001;53.366;6.636;2023-07-28T09:37:46;21.80;99.90
52941;DHT22;62001;53.366;6.636;2023-07-28T09:40:23;21.70;99.90
52941;DHT22;62001;53.366;6.636;2023-07-28T09:42:49;21.70;99.90
52941;DHT22;62001;53.366;6.636;2023-07-28T09:45:17;21.70;99.90
52941;DHT22;62001;53.366;6.636;2023-07-28T09:47:47;21.70;99.90
52941;DHT22;62001;53.366;6.636;2023-07-28T09:50:17;21.70;99.90
52941;DHT22;62001;53.366;6.636;2023-07-28T09:52:46;21.60;99.90
52941;DHT22;62001;53.366;6.636;2023-07-28T09:55:12;21.60;99.90
52941;DHT22;62001;53.366;6.636;2023-07-28T09:57:46;21.40;99.90
52941;DHT22;62001;53.366;6.636;2023-07-28T10:00:15;21.30;99.90
52941;DHT22;62001;53.366;6.636;2023-07-28T10:02:42;21.10;99.90
52941;DHT22;62001;53.366;6.636;2023-07-28T10:05:08;21.00;99.90
52941;DHT22;62001;53.366;6.636;2023-07-28T10:07:39;21.00;99.90
52941;DHT22;62001;53.366;6.636;2023-07-28T10:10:07;21.00;99.90
52941;DHT22;62001;53.366;6.636;2023-07-28T10:12:50;21.00;99.90
52941;DHT22;62001;53.366;6.636;2023-07-28T10:15:21;21.00;99.90
52941;DHT22;62001;53.366;6.636;2023-07-28T10:17:56;21.10;99.90
52941;DHT22;62001;53.366;6.636;2023-07-28T10:20:35;21.30;99.90
52941;DHT22;62001;53.366;6.636;2023-07-28T10:25:35;21.70;99.90
52941;DHT22;62001;53.366;6.636;2023-07-28T10:28:02;21.80;99.90
52941;DHT22;62001;53.366;6.636;2023-07-28T10:30:28;21.80;99.90
52941;DHT22;62001;53.366;6.636;2023-07-28T10:32:55;22.00;99.90
52941;DHT22;62001;53.366;6.636;2023-07-28T10:35:26;22.20;99.90
52941;DHT22;62001;53.366;6.636;2023-07-28T10:37:53;22.50;99.90
52941;DHT22;62001;53.366;6.636;2023-07-28T10:40:29;22.60;99.90
52941;DHT22;62001;53.366;6.636;2023-07-28T10:42:57;22.70;99.90
52941;DHT22;62001;53.366;6.636;2023-07-28T10:45:27;22.70;99.90
52941;DHT22;62001;53.366;6.636;2023-07-28T10:47:54;22.80;99.90
52941;DHT22;62001;53.366;6.636;2023-07-28T10:50:28;23.00;99.90
52941;DHT22;62001;53.366;6.636;2023-07-28T10:52:54;23.20;99.90
52941;DHT22;62001;53.366;6.636;2023-07-28T10:55:23;23.30;99.90
52941;DHT22;62001;53.366;6.636;2023-07-28T10:57:51;23.40;99.90
52941;DHT22;62001;53.366;6.636;2023-07-28T11:00:22;23.40;99.90
52941;DHT22;62001;53.366;6.636;2023-07-28T11:02:52;23.60;99.90
52941;DHT22;62001;53.366;6.636;2023-07-28T11:05:29;23.50;99.90
52941;DHT22;62001;53.366;6.636;2023-07-28T11:07:59;23.50;99.90
52941;DHT22;62001;53.366;6.636;2023-07-28T11:10:28;23.40;99.90
52941;DHT22;62001;53.366;6.636;2023-07-28T11:13:01;23.30;99.90
52941;DHT22;62001;53.366;6.636;2023-07-28T11:15:27;23.30;99.90
52941;DHT22;62001;53.366;6.636;2023-07-28T11:17:54;23.40;99.90
52941;DHT22;62001;53.366;6.636;2023-07-28T11:20:22;23.60;99.90
52941;DHT22;62001;53.366;6.636;2023-07-28T11:22:58;23.80;99.90
52941;DHT22;62001;53.366;6.636;2023-07-28T11:25:25;23.90;99.90
52941;DHT22;62001;53.366;6.636;2023-07-28T11:27:52;23.90;99.90
52941;DHT22;62001;53.366;6.636;2023-07-28T11:30:19;23.80;99.90
52941;DHT22;62001;53.366;6.636;2023-07-28T11:32:47;23.80;99.90
52941;DHT22;62001;53.366;6.636;2023-07-28T11:35:15;24.00;99.90
52941;DHT22;62001;53.366;6.636;2023-07-28T11:37:43;24.30;99.90
52941;DHT22;62001;53.366;6.636;2023-07-28T11:40:10;24.30;99.90
52941;DHT22;62001;53.366;6.636;2023-07-28T11:42:49;24.20;99.90
52941;DHT22;62001;53.366;6.636;2023-07-28T11:45:17;24.10;99.90
52941;DHT22;62001;53.366;6.636;2023-07-28T11:48:03;24.10;99.90
52941;DHT22;62001;53.366;6.636;2023-07-28T11:50:38;24.20;99.90
52941;DHT22;62001;53.366;6.636;2023-07-28T11:53:04;24.10;99.90
52941;DHT22;62001;53.366;6.636;2023-07-28T11:55:33;24.10;99.90
52941;DHT22;62001;53.366;6.636;2023-07-28T11:58:00;24.20;99.90
52941;DHT22;62001;53.366;6.636;2023-07-28T12:00:31;24.30;99.90
52941;DHT22;62001;53.366;6.636;2023-07-28T12:03:03;24.20;99.90
52941;DHT22;62001;53.366;6.636;2023-07-28T12:05:29;24.10;99.90
52941;DHT22;62001;53.366;6.636;2023-07-28T12:07:55;24.00;99.90
52941;DHT22;62001;53.366;6.636;2023-07-28T12:10:21;23.90;99.90
52941;DHT22;62001;53.366;6.636;2023-07-28T12:12:47;23.90;99.90
52941;DHT22;62001;53.366;6.636;2023-07-28T12:15:23;24.10;99.90
52941;DHT22;62001;53.366;6.636;2023-07-28T12:20:40;24.20;99.90
52941;DHT22;62001;53.366;6.636;2023-07-28T12:23:08;24.10;99.90
52941;DHT22;62001;53.366;6.636;2023-07-28T12:25:35;24.00;99.90
52941;DHT22;62001;53.366;6.636;2023-07-28T12:28:02;24.00;99.90
52941;DHT22;62001;53.366;6.636;2023-07-28T12:30:28;24.10;99.90
52941;DHT22;62001;53.366;6.636;2023-07-28T12:32:55;24.10;99.90
52941;DHT22;62001;53.366;6.636;2023-07-28T12:35:21;24.20;99.90
52941;DHT22;62001;53.366;6.636;2023-07-28T12:37:51;24.40;99.90
52941;DHT22;62001;53.366;6.636;2023-07-28T12:40:18;24.60;99.90
52941;DHT22;62001;53.366;6.636;2023-07-28T12:42:45;24.70;99.90
52941;DHT22;62001;53.366;6.636;2023-07-28T12:45:13;24.70;99.90
52941;DHT22;62001;53.366;6.636;2023-07-28T12:47:39;24.70;99.90
52941;DHT22;62001;53.366;6.636;2023-07-28T12:50:05;24.60;99.90
52941;DHT22;62001;53.366;6.636;2023-07-28T12:52:34;24.50;99.90
52941;DHT22;62001;53.366;6.636;2023-07-28T12:55:00;24.50;99.90
52941;DHT22;62001;53.366;6.636;2023-07-28T12:57:26;24.50;99.90
52941;DHT22;62001;53.366;6.636;2023-07-28T12:59:52;24.50;99.90
52941;DHT22;62001;53.366;6.636;2023-07-28T13:02:18;24.50;99.90
52941;DHT22;62001;53.366;6.636;2023-07-28T13:04:43;24.60;99.90
52941;DHT22;62001;53.366;6.636;2023-07-28T13:07:09;24.80;99.90
52941;DHT22;62001;53.366;6.636;2023-07-28T13:09:36;24.80;99.90
52941;DHT22;62001;53.366;6.636;2023-07-28T13:12:02;24.60;99.90
52941;DHT22;62001;53.366;6.636;2023-07-28T13:14:28;24.50;99.90
52941;DHT22;62001;53.366;6.636;2023-07-28T13:16:54;24.40;99.90
52941;DHT22;62001;53.366;6.636;2023-07-28T13:19:20;24.60;99.90
52941;DHT22;62001;53.366;6.636;2023-07-28T13:21:46;24.80;99.90
52941;DHT22;62001;53.366;6.636;2023-07-28T13:24:12;24.90;99.90
52941;DHT22;62001;53.366;6.636;2023-07-28T13:26:37;25.00;99.90
52941;DHT22;62001;53.366;6.636;2023-07-28T13:29:03;25.00;99.90
52941;DHT22;62001;53.366;6.636;2023-07-28T13:31:33;24.90;99.90
52941;DHT22;62001;53.366;6.636;2023-07-28T13:33:59;24.90;99.90
52941;DHT22;62001;53.366;6.636;2023-07-28T13:36:25;24.90;99.90
52941;DHT22;62001;53.366;6.636;2023-07-28T13:38:51;25.00;99.90
52941;DHT22;62001;53.366;6.636;2023-07-28T13:41:17;25.10;99.90
52941;DHT22;62001;53.366;6.636;2023-07-28T13:43:42;25.30;99.90
52941;DHT22;62001;53.366;6.636;2023-07-28T13:46:08;25.40;99.90
52941;DHT22;62001;53.366;6.636;2023-07-28T13:48:34;25.40;99.90
52941;DHT22;62001;53.366;6.636;2023-07-28T13:51:05;25.30;99.90
52941;DHT22;62001;53.366;6.636;2023-07-28T13:53:30;25.00;99.90
52941;DHT22;62001;53.366;6.636;2023-07-28T13:55:56;24.80;99.90
52941;DHT22;62001;53.366;6.636;2023-07-28T13:58:22;24.60;99.90
52941;DHT22;62001;53.366;6.636;2023-07-28T14:00:48;24.40;99.90
52941;DHT22;62001;53.366;6.636;2023-07-28T14:03:14;24.40;99.90
52941;DHT22;62001;53.366;6.636;2023-07-28T14:05:41;24.40;99.90
52941;DHT22;62001;53.366;6.636;2023-07-28T14:08:07;24.40;99.90
52941;DHT22;62001;53.366;6.636;2023-07-28T14:10:33;24.40;99.90
52941;DHT22;62001;53.366;6.636;2023-07-28T14:12:59;24.30;99.90
52941;DHT22;62001;53.366;6.636;2023-07-28T14:15:25;24.10;99.90
52941;DHT22;62001;53.366;6.636;2023-07-28T14:17:51;24.00;99.90
52941;DHT22;62001;53.366;6.636;2023-07-28T14:20:17;23.90;99.90
52941;DHT22;62001;53.366;6.636;2023-07-28T14:22:43;23.90;99.90
52941;DHT22;62001;53.366;6.636;2023-07-28T14:25:09;23.90;99.90
52941;DHT22;62001;53.366;6.636;2023-07-28T14:27:35;24.00;99.90
52941;DHT22;62001;53.366;6.636;2023-07-28T14:30:01;23.90;99.90
52941;DHT22;62001;53.366;6.636;2023-07-28T14:32:26;23.80;99.90
52941;DHT22;62001;53.366;6.636;2023-07-28T14:34:52;23.80;99.90
52941;DHT22;62001;53.366;6.636;2023-07-28T14:37:19;23.90;99.90
52941;DHT22;62001;53.366;6.636;2023-07-28T14:39:44;24.20;99.90
52941;DHT22;62001;53.366;6.636;2023-07-28T14:42:10;24.30;99.90
52941;DHT22;62001;53.366;6.636;2023-07-28T14:44:36;24.40;99.90
52941;DHT22;62001;53.366;6.636;2023-07-28T14:47:02;24.40;99.90
52941;DHT22;62001;53.366;6.636;2023-07-28T14:49:28;24.50;99.90
52941;DHT22;62001;53.366;6.636;2023-07-28T14:51:54;24.60;99.90
52941;DHT22;62001;53.366;6.636;2023-07-28T14:54:20;24.70;99.90
52941;DHT22;62001;53.366;6.636;2023-07-28T14:56:46;24.80;99.90
52941;DHT22;62001;53.366;6.636;2023-07-28T14:59:14;24.90;99.90
52941;DHT22;62001;53.366;6.636;2023-07-28T15:01:42;25.00;99.90
52941;DHT22;62001;53.366;6.636;2023-07-28T15:04:08;25.00;99.90
52941;DHT22;62001;53.366;6.636;2023-07-28T15:06:33;25.00;99.90
52941;DHT22;62001;53.366;6.636;2023-07-28T15:08:59;25.00;99.90
52941;DHT22;62001;53.366;6.636;2023-07-28T15:11:25;24.90;99.90
52941;DHT22;62001;53.366;6.636;2023-07-28T15:13:51;24.80;99.90
52941;DHT22;62001;53.366;6.636;2023-07-28T15:16:17;24.60;99.90
52941;DHT22;62001;53.366;6.636;2023-07-28T15:18:43;24.60;99.90
52941;DHT22;62001;53.366;6.636;2023-07-28T15:21:09;24.60;99.90
52941;DHT22;62001;53.366;6.636;2023-07-28T15:23:34;24.60;99.90
52941;DHT22;62001;53.366;6.636;2023-07-28T15:26:01;24.70;99.90
52941;DHT22;62001;53.366;6.636;2023-07-28T15:28:26;24.80;99.90
52941;DHT22;62001;53.366;6.636;2023-07-28T15:30:52;24.80;99.90
52941;DHT22;62001;53.366;6.636;2023-07-28T15:33:21;24.80;99.90
52941;DHT22;62001;53.366;6.636;2023-07-28T15:35:51;24.60;99.90
52941;DHT22;62001;53.366;6.636;2023-07-28T15:38:18;24.60;99.90
52941;DHT22;62001;53.366;6.636;2023-07-28T15:40:44;24.60;99.90